Time;durP1;ratioP1;P1;durP2;ratioP2;P2;SDS_P1;SDS_P2;PMS_P1;PMS_P2;Temp;Humidity;BMP_temperature;BMP_pressure;BME280_temperature;BME280_humidity;BME280_pressure;Samples;Min_cycle;Max_cycle;Signal;HPM_P1;HPM_P2
2024/01/03 00:00:31;;;;;;;;;;;;;;;;;;4976330;28;20054;-52
2024/01/03 00:02:57;;;;;;;;;;;;;;;;;;4979929;28;19949;-52
2024/01/03 00:05:23;;;;;;;;;;;;;;;;;;4983639;28;19921;-52
2024/01/03 00:07:49;;;;;;;;;;;;;;;;;;4980090;28;19921;-52
2024/01/03 00:10:15;;;;;;;;;;;;;;;;;;4981827;28;20349;-52
2024/01/03 00:12:40;;;;;;;;;;;;;;;;;;4979832;28;19914;-53
2024/01/03 00:15:06;;;;;;;;;;;;;;;;;;4982735;28;19909;-52
2024/01/03 00:17:32;;;;;;;;;;;;;;;;;;4984252;28;19928;-53
2024/01/03 00:19:58;;;;;;;;;;;;;;;;;;4984716;28;19918;-53
2024/01/03 00:22:24;;;;;;;;;;;;;;;;;;4974532;28;19913;-53
2024/01/03 00:24:50;;;;;;;;;;;;;;;;;;4983971;28;19922;-52
2024/01/03 00:27:16;;;;;;;;;;;;;;;;;;4980094;28;20624;-52
2024/01/03 00:29:42;;;;;;;;;;;;;;;;;;4980894;28;19953;-53
2024/01/03 00:32:08;;;;;;;;;;;;;;;;;;4981802;28;20071;-52
2024/01/03 00:34:33;;;;;;;;;;;;;;;;;;4981195;28;19948;-52
2024/01/03 00:36:59;;;;;;;;;;;;;;;;;;4984119;28;19988;-52
2024/01/03 00:39:25;;;;;;;;;;;;;;;;;;4980442;28;19910;-51
2024/01/03 00:41:51;;;;;;;;;;;;;;;;;;4983424;28;19945;-53
2024/01/03 00:44:17;;;;;;;;;;;;;;;;;;4958483;28;19913;-53
2024/01/03 00:46:43;;;;;;;;;;;;;;;;;;4979229;28;20720;-52
2024/01/03 00:49:09;;;;;;;;;;;;;;;;;;4979386;28;19972;-52
2024/01/03 00:51:35;;;;;;;;;;;;;;;;;;4973235;28;19975;-53
2024/01/03 00:54:00;;;;;;;;;;;;;;;;;;4979825;28;19939;-52
2024/01/03 00:56:27;;;;;;;;;;;;;;;;;;4973869;28;20310;-52
2024/01/03 00:58:53;;;;;;;;;;;;;;;;;;4975579;28;19945;-52
2024/01/03 01:01:19;;;;;;;;;;;;;;;;;;4981840;28;19944;-52
2024/01/03 01:03:45;;;;;;;;;;;;;;;;;;4973463;28;19917;-52
2024/01/03 01:06:11;;;;;;;;;;;;;;;;;;4977987;28;19925;-52
2024/01/03 01:08:36;;;;;;;;;;;;;;;;;;4975644;28;19917;-52
2024/01/03 01:11:02;;;;;;;;;;;;;;;;;;4980420;28;19918;-52
2024/01/03 01:13:28;;;;;;;;;;;;;;;;;;4974752;28;19940;-52
2024/01/03 01:15:54;;;;;;;;;;;;;;;;;;4978023;28;19955;-53
2024/01/03 01:18:20;;;;;;;;;;;;;;;;;;4975261;28;20124;-52
2024/01/03 01:20:46;;;;;;;;;;;;;;;;;;4977053;28;19924;-53
2024/01/03 01:23:12;;;;;;;;;;;;;;;;;;4980359;28;20341;-53
2024/01/03 01:25:38;;;;;;;;;;;;;;;;;;4986465;28;19913;-53
2024/01/03 01:28:03;;;;;;;;;;;;;;;;;;4977420;28;19918;-53
2024/01/03 01:30:29;;;;;;;;;;;;;;;;;;4979565;28;20286;-53
2024/01/03 01:32:55;;;;;;;;;;;;;;;;;;4980542;28;19997;-54
2024/01/03 01:35:21;;;;;;;;;;;;;;;;;;4980507;28;20641;-53
2024/01/03 01:37:48;;;;;;;;;;;;;;;;;;4982019;28;19918;-53
2024/01/03 01:40:14;;;;;;;;;;;;;;;;;;4978446;28;19914;-53
2024/01/03 01:42:40;;;;;;;;;;;;;;;;;;4980970;28;19964;-53
2024/01/03 01:45:05;;;;;;;;;;;;;;;;;;4982538;28;20040;-53
2024/01/03 01:47:31;;;;;;;;;;;;;;;;;;4962536;28;20672;-52
2024/01/03 01:49:57;;;;;;;;;;;;;;;;;;4981850;28;20352;-53
2024/01/03 01:52:23;;;;;;;;;;;;;;;;;;4978042;28;19921;-53
2024/01/03 01:54:49;;;;;;;;;;;;;;;;;;4981472;28;20373;-53
2024/01/03 01:57:15;;;;;;;;;;;;;;;;;;4976451;28;19976;-53
2024/01/03 01:59:42;;;;;;;;;;;;;;;;;;4982560;28;19921;-52
2024/01/03 02:02:08;;;;;;;;;;;;;;;;;;4974813;28;20288;-52
2024/01/03 02:04:33;;;;;;;;;;;;;;;;;;4977412;28;19924;-52
2024/01/03 02:06:59;;;;;;;;;;;;;;;;;;4973667;28;19971;-52
2024/01/03 02:09:25;;;;;;;;;;;;;;;;;;4978502;28;20278;-52
2024/01/03 02:11:51;;;;;;;;;;;;;;;;;;4976697;28;20008;-52
2024/01/03 02:14:17;;;;;;;;;;;;;;;;;;4978349;28;20042;-52
2024/01/03 02:16:43;;;;;;;;;;;;;;;;;;4975882;28;19917;-52
2024/01/03 02:19:09;;;;;;;;;;;;;;;;;;4981564;28;19917;-52
2024/01/03 02:21:34;;;;;;;;;;;;;;;;;;4970637;28;20266;-52
2024/01/03 02:24:00;;;;;;;;;;;;;;;;;;4977296;28;19914;-52
2024/01/03 02:26:26;;;;;;;;;;;;;;;;;;4979615;28;19956;-52
2024/01/03 02:28:52;;;;;;;;;;;;;;;;;;4976424;28;19921;-52
2024/01/03 02:31:18;;;;;;;;;;;;;;;;;;4977396;28;20322;-52
2024/01/03 02:33:44;;;;;;;;;;;;;;;;;;4975059;28;19925;-52
2024/01/03 02:36:09;;;;;;;;;;;;;;;;;;4985779;28;20005;-52
2024/01/03 02:38:35;;;;;;;;;;;;;;;;;;4988318;28;20317;-52
2024/01/03 02:41:01;;;;;;;;;;;;;;;;;;4979006;28;19948;-52
2024/01/03 02:43:27;;;;;;;;;;;;;;;;;;4979934;28;19917;-52
2024/01/03 02:45:53;;;;;;;;;;;;;;;;;;4970517;28;19922;-52
2024/01/03 02:48:19;;;;;;;;;;;;;;;;;;4978843;28;19918;-52
2024/01/03 02:50:48;;;;;;;;;;;;;;;;;;4977957;28;19929;-52
2024/01/03 02:53:13;;;;;;;;;;;;;;;;;;4980055;28;19917;-52
2024/01/03 02:55:39;;;;;;;;;;;;;;;;;;4979388;28;19968;-52
2024/01/03 02:58:05;;;;;;;;;;;;;;;;;;4977483;28;19997;-52
2024/01/03 03:00:31;;;;;;;;;;;;;;;;;;4982584;28;20063;-52
2024/01/03 03:02:57;;;;;;;;;;;;;;;;;;4979302;28;19993;-52
2024/01/03 03:05:23;;;;;;;;;;;;;;;;;;4974440;28;19925;-51
2024/01/03 03:07:49;;;;;;;;;;;;;;;;;;4980522;28;20339;-51
2024/01/03 03:10:15;;;;;;;;;;;;;;;;;;4975644;28;19975;-51
2024/01/03 03:12:41;;;;;;;;;;;;;;;;;;4976777;28;19909;-51
2024/01/03 03:15:07;;;;;;;;;;;;;;;;;;4980672;28;19917;-51
2024/01/03 03:17:32;;;;;;;;;;;;;;;;;;4978975;28;20344;-51
2024/01/03 03:19:58;;;;;;;;;;;;;;;;;;4976700;28;19921;-51
2024/01/03 03:22:24;;;;;;;;;;;;;;;;;;4983892;28;20174;-51
2024/01/03 03:24:50;;;;;;;;;;;;;;;;;;4976782;28;19914;-51
2024/01/03 03:27:16;;;;;;;;;;;;;;;;;;4979870;28;19909;-51
2024/01/03 03:29:42;;;;;;;;;;;;;;;;;;4977425;28;19964;-51
2024/01/03 03:32:08;;;;;;;;;;;;;;;;;;4983260;28;20646;-51
2024/01/03 03:34:33;;;;;;;;;;;;;;;;;;4980407;28;20026;-51
2024/01/03 03:36:59;;;;;;;;;;;;;;;;;;4978426;28;20376;-51
2024/01/03 03:39:25;;;;;;;;;;;;;;;;;;4974797;28;20015;-51
2024/01/03 03:41:51;;;;;;;;;;;;;;;;;;4983561;28;19913;-51
2024/01/03 03:44:17;;;;;;;;;;;;;;;;;;4977562;28;19991;-51
2024/01/03 03:46:43;;;;;;;;;;;;;;;;;;4978282;28;19984;-51
2024/01/03 03:49:09;;;;;;;;;;;;;;;;;;4978779;28;19949;-51
2024/01/03 03:51:34;;;;;;;;;;;;;;;;;;4980771;28;20370;-51
2024/01/03 03:54:00;;;;;;;;;;;;;;;;;;4976407;28;20053;-51
2024/01/03 03:56:26;;;;;;;;;;;;;;;;;;4973528;28;19918;-51
2024/01/03 03:58:52;;;;;;;;;;;;;;;;;;4978513;28;19928;-51
2024/01/03 04:01:18;;;;;;;;;;;;;;;;;;4976601;28;19921;-51
2024/01/03 04:03:44;;;;;;;;;;;;;;;;;;4980332;28;19925;-51
2024/01/03 04:06:12;;;;;;;;;;;;;;;;;;4985794;28;20449;-51
2024/01/03 04:08:38;;;;;;;;;;;;;;;;;;4986378;28;19917;-51
2024/01/03 04:11:03;;;;;;;;;;;;;;;;;;4983855;28;19925;-51
2024/01/03 04:13:29;;;;;;;;;;;;;;;;;;4977633;28;19913;-51
2024/01/03 04:15:55;;;;;;;;;;;;;;;;;;4981515;28;20598;-51
2024/01/03 04:18:21;;;;;;;;;;;;;;;;;;4988967;28;20807;-51
2024/01/03 04:20:47;;;;;;;;;;;;;;;;;;4975235;28;19925;-51
2024/01/03 04:23:13;;;;;;;;;;;;;;;;;;4982144;28;19952;-51
2024/01/03 04:25:39;;;;;;;;;;;;;;;;;;4976758;28;19964;-51
2024/01/03 04:28:04;;;;;;;;;;;;;;;;;;4979458;28;20429;-51
2024/01/03 04:30:30;;;;;;;;;;;;;;;;;;4984536;28;19982;-51
2024/01/03 04:32:56;;;;;;;;;;;;;;;;;;4986630;28;19924;-51
2024/01/03 04:35:22;;;;;;;;;;;;;;;;;;4979553;28;19952;-51
2024/01/03 04:37:48;;;;;;;;;;;;;;;;;;4982691;28;19917;-51
2024/01/03 04:40:14;;;;;;;;;;;;;;;;;;4977759;28;20235;-51
2024/01/03 04:42:40;;;;;;;;;;;;;;;;;;4962376;28;19918;-51
2024/01/03 04:45:05;;;;;;;;;;;;;;;;;;4982645;28;20392;-51
2024/01/03 04:47:32;;;;;;;;;;;;;;;;;;4977554;28;19913;-51
2024/01/03 04:49:58;;;;;;;;;;;;;;;;;;4980730;28;19928;-51
2024/01/03 04:52:24;;;;;;;;;;;;;;;;;;4984160;28;19921;-51
2024/01/03 04:54:49;;;;;;;;;;;;;;;;;;4974313;28;19924;-51
2024/01/03 04:57:15;;;;;;;;;;;;;;;;;;4988918;28;19909;-51
2024/01/03 04:59:41;;;;;;;;;;;;;;;;;;4975298;28;20348;-51
2024/01/03 05:02:07;;;;;;;;;;;;;;;;;;4984389;28;19995;-51
2024/01/03 05:04:33;;;;;;;;;;;;;;;;;;4983065;28;19921;-51
2024/01/03 05:06:59;;;;;;;;;;;;;;;;;;4975279;28;20000;-51
2024/01/03 05:09:25;;;;;;;;;;;;;;;;;;4984266;28;20333;-51
2024/01/03 05:11:50;;;;;;;;;;;;;;;;;;4978875;28;19948;-51
2024/01/03 05:14:17;;;;;;;;;;;;;;;;;;4982852;28;20026;-51
2024/01/03 05:16:42;;;;;;;;;;;;;;;;;;4977366;28;20004;-51
2024/01/03 05:19:08;;;;;;;;;;;;;;;;;;4985244;28;19922;-51
2024/01/03 05:21:34;;;;;;;;;;;;;;;;;;4983453;28;19968;-51
2024/01/03 05:24:00;;;;;;;;;;;;;;;;;;4984992;28;19948;-51
2024/01/03 05:26:26;;;;;;;;;;;;;;;;;;4976910;28;20399;-51
2024/01/03 05:28:52;;;;;;;;;;;;;;;;;;4976811;28;19921;-51
2024/01/03 05:31:18;;;;;;;;;;;;;;;;;;4980138;28;19999;-51
2024/01/03 05:33:43;;;;;;;;;;;;;;;;;;4984815;28;19924;-51
2024/01/03 05:36:09;;;;;;;;;;;;;;;;;;4990290;28;19905;-51
2024/01/03 05:38:36;;;;;;;;;;;;;;;;;;4984835;28;19913;-50
2024/01/03 05:41:02;;;;;;;;;;;;;;;;;;4976972;28;19913;-51
2024/01/03 05:43:28;;;;;;;;;;;;;;;;;;4985564;28;19925;-51
2024/01/03 05:45:54;;;;;;;;;;;;;;;;;;4974002;28;20403;-51
2024/01/03 05:48:19;;;;;;;;;;;;;;;;;;4979994;28;19910;-51
2024/01/03 05:50:45;;;;;;;;;;;;;;;;;;4981810;28;19949;-51
2024/01/03 05:53:11;;;;;;;;;;;;;;;;;;4980395;28;20304;-51
2024/01/03 05:55:37;;;;;;;;;;;;;;;;;;4974870;28;19996;-51
2024/01/03 05:58:03;;;;;;;;;;;;;;;;;;4978243;28;19914;-51
2024/01/03 06:00:29;;;;;;;;;;;;;;;;;;4980947;28;19917;-51
2024/01/03 06:02:55;;;;;;;;;;;;;;;;;;4980798;28;19925;-51
2024/01/03 06:05:21;;;;;;;;;;;;;;;;;;4979848;28;19918;-51
2024/01/03 06:07:47;;;;;;;;;;;;;;;;;;4970954;28;19914;-50
2024/01/03 06:10:13;;;;;;;;;;;;;;;;;;4976722;28;19944;-50
2024/01/03 06:12:39;;;;;;;;;;;;;;;;;;4980625;28;19924;-50
2024/01/03 06:15:05;;;;;;;;;;;;;;;;;;4981402;28;19936;-50
2024/01/03 06:17:30;;;;;;;;;;;;;;;;;;4976747;28;19913;-51
2024/01/03 06:19:56;;;;;;;;;;;;;;;;;;4975010;28;20598;-50
2024/01/03 06:22:22;;;;;;;;;;;;;;;;;;4974359;28;20008;-51
2024/01/03 06:24:48;;;;;;;;;;;;;;;;;;4947225;28;19922;-51
2024/01/03 06:27:14;;;;;;;;;;;;;;;;;;4963437;28;19914;-51
2024/01/03 06:29:41;;;;;;;;;;;;;;;;;;4962091;28;19913;-51
2024/01/03 06:32:07;;;;;;;;;;;;;;;;;;4966860;28;20315;-50
2024/01/03 06:34:33;;;;;;;;;;;;;;;;;;4964367;28;19929;-51
2024/01/03 06:37:00;;;;;;;;;;;;;;;;;;4962706;28;19921;-50
2024/01/03 06:39:26;;;;;;;;;;;;;;;;;;4960652;28;19924;-50
2024/01/03 06:41:51;;;;;;;;;;;;;;;;;;4964668;28;20377;-50
2024/01/03 06:44:17;;;;;;;;;;;;;;;;;;4966419;28;19914;-51
2024/01/03 06:46:43;;;;;;;;;;;;;;;;;;4958255;28;19969;-51
2024/01/03 06:49:09;;;;;;;;;;;;;;;;;;4961489;28;19922;-51
2024/01/03 06:51:35;;;;;;;;;;;;;;;;;;4961789;28;20048;-51
2024/01/03 06:54:01;;;;;;;;;;;;;;;;;;4969322;28;19914;-51
2024/01/03 06:56:27;;;;;;;;;;;;;;;;;;4956627;28;20222;-50
2024/01/03 06:58:53;;;;;;;;;;;;;;;;;;4969515;28;20033;-50
2024/01/03 07:01:19;;;;;;;;;;;;;;;;;;4973014;28;20134;-50
2024/01/03 07:03:44;;;;;;;;;;;;;;;;;;4971562;28;19918;-50
2024/01/03 07:06:10;;;;;;;;;;;;;;;;;;4969786;28;19917;-50
2024/01/03 07:08:36;;;;;;;;;;;;;;;;;;4973706;28;19961;-51
2024/01/03 07:11:02;;;;;;;;;;;;;;;;;;4968294;28;19926;-50
2024/01/03 07:13:28;;;;;;;;;;;;;;;;;;4953902;28;19921;-51
2024/01/03 07:15:54;;;;;;;;;;;;;;;;;;4983563;28;20321;-51
2024/01/03 07:18:20;;;;;;;;;;;;;;;;;;4986694;28;19917;-51
2024/01/03 07:20:46;;;;;;;;;;;;;;;;;;4984551;28;20231;-51
2024/01/03 07:23:12;;;;;;;;;;;;;;;;;;4964730;28;20380;-50
2024/01/03 07:25:38;;;;;;;;;;;;;;;;;;4962995;28;20381;-50
2024/01/03 07:28:04;;;;;;;;;;;;;;;;;;4970564;28;19968;-50
2024/01/03 07:30:29;;;;;;;;;;;;;;;;;;4966508;28;19939;-50
2024/01/03 07:32:57;;;;;;;;;;;;;;;;;;4952027;28;19918;-50
2024/01/03 07:35:23;;;;;;;;;;;;;;;;;;4968923;28;19921;-50
2024/01/03 07:37:49;;;;;;;;;;;;;;;;;;4969851;28;19977;-50
2024/01/03 07:40:15;;;;;;;;;;;;;;;;;;4978900;28;20103;-50
2024/01/03 07:42:41;;;;;;;;;;;;;;;;;;4978727;28;19914;-50
2024/01/03 07:45:07;;;;;;;;;;;;;;;;;;4983068;28;20578;-50
2024/01/03 07:47:33;;;;;;;;;;;;;;;;;;4982124;28;19929;-50
2024/01/03 07:49:59;;;;;;;;;;;;;;;;;;4978747;28;19922;-50
2024/01/03 07:52:25;;;;;;;;;;;;;;;;;;4978161;28;19925;-50
2024/01/03 07:54:51;;;;;;;;;;;;;;;;;;4972172;28;19921;-50
2024/01/03 07:57:17;;;;;;;;;;;;;;;;;;4983393;28;20329;-50
2024/01/03 07:59:45;;;;;;;;;;;;;;;;;;4980400;28;20056;-52
2024/01/03 08:02:11;;;;;;;;;;;;;;;;;;4968799;28;19918;-52
2024/01/03 08:04:36;;;;;;;;;;;;;;;;;;4979043;28;19949;-51
2024/01/03 08:07:02;;;;;;;;;;;;;;;;;;4974992;28;19920;-52
2024/01/03 08:09:28;;;;;;;;;;;;;;;;;;4977762;28;20023;-52
2024/01/03 08:11:54;;;;;;;;;;;;;;;;;;4979608;28;19921;-51
2024/01/03 08:14:21;;;;;;;;;;;;;;;;;;4978616;28;20017;-54
2024/01/03 08:16:46;;;;;;;;;;;;;;;;;;4972453;28;19920;-54
2024/01/03 08:19:12;;;;;;;;;;;;;;;;;;4974445;28;19917;-54
2024/01/03 08:21:38;;;;;;;;;;;;;;;;;;4976731;28;19910;-52
2024/01/03 08:24:04;;;;;;;;;;;;;;;;;;4977562;28;20540;-52
2024/01/03 08:26:31;;;;;;;;;;;;;;;;;;4975616;28;19921;-51
2024/01/03 08:28:57;;;;;;;;;;;;;;;;;;4979987;28;19992;-51
2024/01/03 08:31:23;;;;;;;;;;;;;;;;;;4977795;28;19947;-51
2024/01/03 08:33:49;;;;;;;;;;;;;;;;;;4979493;28;19937;-51
2024/01/03 08:36:14;;;;;;;;;;;;;;;;;;4978195;28;19964;-51
2024/01/03 08:38:40;;;;;;;;;;;;;;;;;;4979309;28;19925;-51
2024/01/03 08:41:06;;;;;;;;;;;;;;;;;;4973123;28;19921;-51
2024/01/03 08:43:32;;;;;;;;;;;;;;;;;;4978553;28;19918;-51
2024/01/03 08:45:58;;;;;;;;;;;;;;;;;;4976594;28;19914;-51
2024/01/03 08:48:24;;;;;;;;;;;;;;;;;;4962598;28;19921;-51
2024/01/03 08:50:50;;;;;;;;;;;;;;;;;;4954890;28;20555;-51
2024/01/03 08:53:15;;;;;;;;;;;;;;;;;;4958244;28;19921;-51
2024/01/03 08:55:41;;;;;;;;;;;;;;;;;;4950182;28;22091;-51
2024/01/03 08:58:08;;;;;;;;;;;;;;;;;;4945568;28;19933;-51
2024/01/03 09:00:34;;;;;;;;;;;;;;;;;;4957737;28;20072;-51
2024/01/03 09:03:00;;;;;;;;;;;;;;;;;;4950595;28;19922;-54
2024/01/03 09:05:26;;;;;;;;;;;;;;;;;;4955828;28;19918;-52
2024/01/03 09:07:52;;;;;;;;;;;;;;;;;;4944176;28;19917;-51
2024/01/03 09:10:18;;;;;;;;;;;;;;;;;;4945303;28;19957;-51
2024/01/03 09:12:44;;;;;;;;;;;;;;;;;;4957242;28;19921;-51
2024/01/03 09:15:10;;;;;;;;;;;;;;;;;;4948264;28;19914;-51
2024/01/03 09:17:40;;;;;;;;;;;;;;;;;;4949789;28;20616;-51
2024/01/03 09:20:06;;;;;;;;;;;;;;;;;;4947829;28;20318;-51
2024/01/03 09:25:16;;;;;;;;;;;;;;;;;;4951880;28;20293;-51
2024/01/03 09:27:42;;;;;;;;;;;;;;;;;;4955473;28;19969;-52
2024/01/03 09:30:08;;;;;;;;;;;;;;;;;;4949120;28;20133;-51
2024/01/03 09:32:33;;;;;;;;;;;;;;;;;;4947651;28;19921;-52
2024/01/03 09:34:59;;;;;;;;;;;;;;;;;;4947772;28;21560;-52
2024/01/03 09:37:25;;;;;;;;;;;;;;;;;;4950281;28;20387;-51
2024/01/03 09:39:51;;;;;;;;;;;;;;;;;;4956611;28;19945;-51
2024/01/03 09:42:17;;;;;;;;;;;;;;;;;;4951961;28;19920;-51
2024/01/03 09:44:43;;;;;;;;;;;;;;;;;;4948492;28;19920;-51
2024/01/03 09:47:09;;;;;;;;;;;;;;;;;;4973329;28;19922;-51
2024/01/03 09:49:35;;;;;;;;;;;;;;;;;;4975571;28;19925;-51
2024/01/03 09:52:01;;;;;;;;;;;;;;;;;;4980294;28;20000;-51
2024/01/03 09:54:27;;;;;;;;;;;;;;;;;;4966350;28;19916;-51
2024/01/03 09:56:53;;;;;;;;;;;;;;;;;;4970757;28;19924;-52
2024/01/03 09:59:19;;;;;;;;;;;;;;;;;;4962620;28;19918;-51
2024/01/03 10:01:45;;;;;;;;;;;;;;;;;;4972943;28;19936;-51
2024/01/03 10:04:11;;;;;;;;;;;;;;;;;;4973733;28;20036;-52
2024/01/03 10:06:36;;;;;;;;;;;;;;;;;;4968875;28;19913;-51
2024/01/03 10:09:02;;;;;;;;;;;;;;;;;;4961809;28;20033;-51
2024/01/03 10:11:28;;;;;;;;;;;;;;;;;;4965457;28;20016;-52
2024/01/03 10:13:54;;;;;;;;;;;;;;;;;;4970756;28;20820;-52
2024/01/03 10:16:20;;;;;;;;;;;;;;;;;;4950866;28;20296;-51
2024/01/03 10:18:46;;;;;;;;;;;;;;;;;;4965807;28;19968;-51
2024/01/03 10:21:12;;;;;;;;;;;;;;;;;;4971218;28;19955;-51
2024/01/03 10:23:38;;;;;;;;;;;;;;;;;;4965326;28;19968;-51
2024/01/03 10:26:04;;;;;;;;;;;;;;;;;;4969669;28;19927;-51
2024/01/03 10:28:30;;;;;;;;;;;;;;;;;;4964288;28;20432;-51
2024/01/03 10:30:57;;;;;;;;;;;;;;;;;;4967885;28;19926;-51
2024/01/03 10:33:23;;;;;;;;;;;;;;;;;;4967325;28;20032;-51
2024/01/03 10:35:49;;;;;;;;;;;;;;;;;;4978493;28;19928;-52
2024/01/03 10:38:16;;;;;;;;;;;;;;;;;;4969381;28;19922;-50
2024/01/03 10:40:41;;;;;;;;;;;;;;;;;;4958560;28;20154;-52
2024/01/03 10:43:07;;;;;;;;;;;;;;;;;;4961346;28;23386;-51
2024/01/03 10:45:33;;;;;;;;;;;;;;;;;;4956885;28;19917;-52
2024/01/03 10:47:59;;;;;;;;;;;;;;;;;;4971293;28;20285;-51
2024/01/03 10:50:25;;;;;;;;;;;;;;;;;;4965201;28;19936;-52
2024/01/03 10:52:51;;;;;;;;;;;;;;;;;;4968034;28;20431;-51
2024/01/03 10:55:17;;;;;;;;;;;;;;;;;;4960165;28;19925;-52
2024/01/03 10:57:43;;;;;;;;;;;;;;;;;;4965273;28;19968;-52
2024/01/03 11:00:12;;;;;;;;;;;;;;;;;;4969225;28;20298;-53
2024/01/03 11:02:37;;;;;;;;;;;;;;;;;;4967665;28;19918;-52
2024/01/03 11:05:03;;;;;;;;;;;;;;;;;;4972643;28;20344;-52
2024/01/03 11:07:29;;;;;;;;;;;;;;;;;;4967319;28;19933;-51
2024/01/03 11:09:55;;;;;;;;;;;;;;;;;;4969932;28;19976;-52
2024/01/03 11:12:21;;;;;;;;;;;;;;;;;;4970658;28;20017;-52
2024/01/03 11:14:47;;;;;;;;;;;;;;;;;;4963300;28;19933;-52
2024/01/03 11:17:12;;;;;;;;;;;;;;;;;;4955452;28;20424;-52
2024/01/03 11:19:38;;;;;;;;;;;;;;;;;;4964244;28;20289;-52
2024/01/03 11:22:04;;;;;;;;;;;;;;;;;;4967500;28;19914;-53
2024/01/03 11:24:30;;;;;;;;;;;;;;;;;;4970396;28;19914;-52
2024/01/03 11:26:56;;;;;;;;;;;;;;;;;;4975145;28;19910;-53
2024/01/03 11:32:07;;;;;;;;;;;;;;;;;;4974448;28;19929;-53
2024/01/03 11:34:33;;;;;;;;;;;;;;;;;;4967479;28;20521;-53
2024/01/03 11:36:58;;;;;;;;;;;;;;;;;;4965652;28;19928;-52
2024/01/03 11:39:24;;;;;;;;;;;;;;;;;;4966333;28;19996;-52
2024/01/03 11:41:50;;;;;;;;;;;;;;;;;;4974880;28;19929;-52
2024/01/03 11:44:16;;;;;;;;;;;;;;;;;;4973363;28;19913;-52
2024/01/03 11:46:42;;;;;;;;;;;;;;;;;;4970558;28;19918;-52
2024/01/03 11:49:08;;;;;;;;;;;;;;;;;;4966724;28;20412;-52
2024/01/03 11:51:33;;;;;;;;;;;;;;;;;;4962402;28;20018;-53
2024/01/03 11:53:59;;;;;;;;;;;;;;;;;;4973701;28;19914;-53
2024/01/03 11:56:25;;;;;;;;;;;;;;;;;;4972107;28;19913;-53
2024/01/03 11:58:51;;;;;;;;;;;;;;;;;;4966453;28;20004;-53
2024/01/03 12:01:17;;;;;;;;;;;;;;;;;;4979116;28;19924;-53
2024/01/03 12:03:43;;;;;;;;;;;;;;;;;;4975886;28;19920;-52
2024/01/03 12:06:09;;;;;;;;;;;;;;;;;;4972439;28;19924;-52
2024/01/03 12:08:35;;;;;;;;;;;;;;;;;;4971062;28;19964;-52
2024/01/03 12:11:00;;;;;;;;;;;;;;;;;;4966195;28;20568;-52
2024/01/03 12:13:26;;;;;;;;;;;;;;;;;;4966837;28;19921;-52
2024/01/03 12:15:52;;;;;;;;;;;;;;;;;;4967073;28;21792;-52
2024/01/03 12:18:20;;;;;;;;;;;;;;;;;;4974602;28;19913;-52
2024/01/03 12:20:46;;;;;;;;;;;;;;;;;;4962373;28;19920;-52
2024/01/03 12:23:15;;;;;;;;;;;;;;;;;;4973317;28;19936;-53
2024/01/03 12:25:42;;;;;;;;;;;;;;;;;;4971272;28;20052;-52
2024/01/03 12:28:08;;;;;;;;;;;;;;;;;;4969708;28;19935;-52
2024/01/03 12:30:34;;;;;;;;;;;;;;;;;;4973465;28;20393;-53
2024/01/03 12:33:00;;;;;;;;;;;;;;;;;;4968840;28;20269;-53
2024/01/03 12:35:26;;;;;;;;;;;;;;;;;;4970801;28;20010;-52
2024/01/03 12:37:52;;;;;;;;;;;;;;;;;;4970440;28;21324;-52
2024/01/03 12:40:18;;;;;;;;;;;;;;;;;;4967705;28;20016;-52
2024/01/03 12:42:44;;;;;;;;;;;;;;;;;;4972858;28;20285;-52
2024/01/03 12:45:10;;;;;;;;;;;;;;;;;;4972254;28;19905;-52
2024/01/03 12:47:36;;;;;;;;;;;;;;;;;;4970179;28;20112;-52
2024/01/03 12:50:02;;;;;;;;;;;;;;;;;;4973499;28;19941;-53
2024/01/03 12:52:27;;;;;;;;;;;;;;;;;;4967937;28;19918;-53
2024/01/03 12:54:54;;;;;;;;;;;;;;;;;;4968223;28;19917;-53
2024/01/03 12:57:20;;;;;;;;;;;;;;;;;;4973463;28;19913;-53
2024/01/03 12:59:45;;;;;;;;;;;;;;;;;;4972642;28;20425;-52
2024/01/03 13:02:11;;;;;;;;;;;;;;;;;;4963478;28;19914;-52
2024/01/03 13:04:38;;;;;;;;;;;;;;;;;;4974217;28;19921;-53
2024/01/03 13:07:04;;;;;;;;;;;;;;;;;;4970097;28;19921;-53
2024/01/03 13:09:30;;;;;;;;;;;;;;;;;;4969565;28;19910;-53
2024/01/03 13:11:56;;;;;;;;;;;;;;;;;;4969720;28;20011;-52
2024/01/03 13:14:22;;;;;;;;;;;;;;;;;;4967291;28;20597;-55
2024/01/03 13:16:48;;;;;;;;;;;;;;;;;;4974212;28;19924;-52
2024/01/03 13:19:15;;;;;;;;;;;;;;;;;;4966991;28;19917;-52
2024/01/03 13:21:41;;;;;;;;;;;;;;;;;;4963919;28;20011;-52
2024/01/03 13:24:07;;;;;;;;;;;;;;;;;;4957222;28;19985;-51
2024/01/03 13:26:32;;;;;;;;;;;;;;;;;;4968715;28;20983;-52
2024/01/03 13:28:58;;;;;;;;;;;;;;;;;;4972053;28;19922;-51
2024/01/03 13:31:24;;;;;;;;;;;;;;;;;;4967883;28;19921;-52
2024/01/03 13:33:50;;;;;;;;;;;;;;;;;;4969874;28;19957;-52
2024/01/03 13:36:16;;;;;;;;;;;;;;;;;;4971929;28;19909;-52
2024/01/03 13:38:42;;;;;;;;;;;;;;;;;;4968933;28;20012;-52
2024/01/03 13:41:08;;;;;;;;;;;;;;;;;;4964278;28;19925;-52
2024/01/03 13:43:33;;;;;;;;;;;;;;;;;;4966135;28;19997;-52
2024/01/03 13:46:01;;;;;;;;;;;;;;;;;;4968320;28;20428;-52
2024/01/03 13:48:27;;;;;;;;;;;;;;;;;;4967122;28;19910;-52
2024/01/03 13:50:53;;;;;;;;;;;;;;;;;;4970386;28;19940;-52
2024/01/03 13:53:20;;;;;;;;;;;;;;;;;;4965331;28;19929;-52
2024/01/03 13:55:46;;;;;;;;;;;;;;;;;;4959448;28;19920;-52
2024/01/03 13:58:12;;;;;;;;;;;;;;;;;;4964737;28;19921;-52
2024/01/03 14:00:38;;;;;;;;;;;;;;;;;;4965157;28;19913;-49
2024/01/03 14:03:04;;;;;;;;;;;;;;;;;;4971180;28;19953;-50
2024/01/03 14:05:30;;;;;;;;;;;;;;;;;;4970950;28;20007;-51
2024/01/03 14:07:56;;;;;;;;;;;;;;;;;;4967137;28;20059;-50
2024/01/03 14:10:22;;;;;;;;;;;;;;;;;;4971480;28;19918;-50
2024/01/03 14:12:47;;;;;;;;;;;;;;;;;;4972432;28;19922;-51
2024/01/03 14:15:13;;;;;;;;;;;;;;;;;;4970990;28;19980;-51
2024/01/03 14:17:39;;;;;;;;;;;;;;;;;;4969568;28;19917;-50
2024/01/03 14:20:06;;;;;;;;;;;;;;;;;;4973161;28;19964;-50
2024/01/03 14:22:32;;;;;;;;;;;;;;;;;;4973099;28;19922;-51
2024/01/03 14:24:58;;;;;;;;;;;;;;;;;;4968383;28;20039;-51
2024/01/03 14:27:24;;;;;;;;;;;;;;;;;;4970160;28;20004;-50
2024/01/03 14:29:49;;;;;;;;;;;;;;;;;;4963620;28;19920;-51
2024/01/03 14:32:15;;;;;;;;;;;;;;;;;;4969497;28;20269;-51
2024/01/03 14:34:42;;;;;;;;;;;;;;;;;;4975324;28;19983;-50
2024/01/03 14:37:08;;;;;;;;;;;;;;;;;;4969893;28;20016;-51
2024/01/03 14:39:33;;;;;;;;;;;;;;;;;;4981653;28;19924;-50
2024/01/03 14:42:02;;;;;;;;;;;;;;;;;;4976239;28;19921;-51
2024/01/03 14:44:28;;;;;;;;;;;;;;;;;;4978683;28;19921;-51
2024/01/03 14:46:54;;;;;;;;;;;;;;;;;;4975325;28;19921;-51
2024/01/03 14:49:20;;;;;;;;;;;;;;;;;;4977634;28;19917;-51
2024/01/03 14:51:46;;;;;;;;;;;;;;;;;;4975635;28;19951;-51
2024/01/03 14:54:12;;;;;;;;;;;;;;;;;;4979832;28;19914;-51
2024/01/03 14:56:38;;;;;;;;;;;;;;;;;;4976850;28;19913;-51
2024/01/03 14:59:04;;;;;;;;;;;;;;;;;;4979803;28;19917;-51
2024/01/03 15:01:30;;;;;;;;;;;;;;;;;;4987399;28;20374;-51
2024/01/03 15:03:56;;;;;;;;;;;;;;;;;;4975375;28;20297;-51
2024/01/03 15:06:22;;;;;;;;;;;;;;;;;;4986762;28;19909;-51
2024/01/03 15:08:53;;;;;;;;;;;;;;;;;;4983260;28;20312;-51
2024/01/03 15:11:19;;;;;;;;;;;;;;;;;;4971732;28;19926;-51
2024/01/03 15:13:45;;;;;;;;;;;;;;;;;;4972770;28;19921;-50
2024/01/03 15:16:11;;;;;;;;;;;;;;;;;;4978842;28;19929;-51
2024/01/03 15:18:37;;;;;;;;;;;;;;;;;;4983102;28;19940;-51
2024/01/03 15:21:03;;;;;;;;;;;;;;;;;;4982065;28;19910;-51
2024/01/03 15:23:29;;;;;;;;;;;;;;;;;;4988250;28;19925;-50
2024/01/03 15:25:57;;;;;;;;;;;;;;;;;;4982129;28;20373;-51
2024/01/03 15:28:24;;;;;;;;;;;;;;;;;;4979766;28;20455;-51
2024/01/03 15:30:50;;;;;;;;;;;;;;;;;;4983528;28;20487;-51
2024/01/03 15:33:15;;;;;;;;;;;;;;;;;;4984814;28;20036;-51
2024/01/03 15:35:41;;;;;;;;;;;;;;;;;;4987584;28;19928;-51
2024/01/03 15:38:07;;;;;;;;;;;;;;;;;;4986837;28;19972;-51
2024/01/03 15:40:33;;;;;;;;;;;;;;;;;;4986270;28;19957;-51
2024/01/03 15:42:59;;;;;;;;;;;;;;;;;;4977739;28;19964;-51
2024/01/03 15:45:26;;;;;;;;;;;;;;;;;;4979475;28;20268;-51
2024/01/03 15:47:52;;;;;;;;;;;;;;;;;;4982447;28;19975;-50
2024/01/03 15:50:18;;;;;;;;;;;;;;;;;;4980936;28;20292;-51
2024/01/03 15:52:44;;;;;;;;;;;;;;;;;;4983284;28;19918;-51
2024/01/03 15:55:10;;;;;;;;;;;;;;;;;;4976960;28;19925;-51
2024/01/03 15:57:36;;;;;;;;;;;;;;;;;;4978790;28;19918;-51
2024/01/03 16:00:04;;;;;;;;;;;;;;;;;;4972243;28;19913;-51
2024/01/03 16:02:30;;;;;;;;;;;;;;;;;;4979272;28;20016;-51
2024/01/03 16:04:56;;;;;;;;;;;;;;;;;;4978898;28;20076;-51
2024/01/03 16:07:22;;;;;;;;;;;;;;;;;;4979989;28;19914;-51
2024/01/03 16:09:48;;;;;;;;;;;;;;;;;;4978507;28;19921;-52
2024/01/03 16:12:14;;;;;;;;;;;;;;;;;;4967556;28;20043;-51
2024/01/03 16:14:40;;;;;;;;;;;;;;;;;;4970272;28;20016;-51
2024/01/03 16:17:06;;;;;;;;;;;;;;;;;;4975850;28;19928;-51
2024/01/03 16:19:32;;;;;;;;;;;;;;;;;;4964205;28;20352;-51
2024/01/03 16:21:58;;;;;;;;;;;;;;;;;;4975940;28;19918;-51
2024/01/03 16:24:23;;;;;;;;;;;;;;;;;;4958398;28;19957;-51
2024/01/03 16:26:49;;;;;;;;;;;;;;;;;;4952473;28;19968;-51
2024/01/03 16:29:15;;;;;;;;;;;;;;;;;;4969510;28;19924;-51
2024/01/03 16:31:41;;;;;;;;;;;;;;;;;;4966970;28;20451;-51
2024/01/03 16:34:07;;;;;;;;;;;;;;;;;;4970094;28;19932;-51
2024/01/03 16:36:33;;;;;;;;;;;;;;;;;;4976661;28;21096;-51
2024/01/03 16:38:59;;;;;;;;;;;;;;;;;;4972711;28;19913;-51
2024/01/03 16:41:24;;;;;;;;;;;;;;;;;;4972294;28;20013;-51